CheckWX is a tool to help pilots better visualize weather data.  It is not intended as a substitute for an official pre-flight weather briefing.

07:51:38 UTC

PABE METAR
Bethel Airport
Bethel, Alaska, USA
Current

20 mins ago

PABE 180732Z 05012KT 6SM -RA BR BKN006 OVC028 08/07 A2918 RMK AO2 P0006 T00780072
Observed
Sep-18 @ 07:32 UTC
Wind
  • 050° at 12 KTS
Visibility
6 SM
Flight Rules
IFR
Conditions
Light Rain, Mist
Cloud Levels
  • Broken at 600' AGL
  • Overcast at 2,800' AGL
Temperature
C / 46°F
Dewpoint
C / 45°F
Humidity
93%
Altimeter
29.18" Hg
Pressure
988.12 hPa
Current Rain
0.06"
Previous

47 mins ago

PABE 180705Z 05011KT 5SM RA BR SCT006 OVC028 08/07 A2919 RMK AO2 P0003 T00830072
Observed
Sep-18 @ 07:05 UTC
Wind
  • 050° at 11 KTS
Visibility
5 SM
Flight Rules
MVFR
Conditions
Rain, Mist
Cloud Levels
  • Scattered at 600' AGL
  • Overcast at 2,800' AGL
Temperature
C / 46°F
Dewpoint
C / 45°F
Humidity
93%
Altimeter
29.19" Hg
Pressure
988.52 hPa
Current Rain
0.03"
Previous

59 mins ago

PABE 180653Z 05010KT 6SM -RA BR BKN006 OVC034 08/08 A2919 RMK AO2 SLP888 P0004 T00830078
Observed
Sep-18 @ 06:53 UTC
Wind
  • 050° at 10 KTS
Visibility
6 SM
Flight Rules
IFR
Conditions
Light Rain, Mist
Cloud Levels
  • Broken at 600' AGL
  • Overcast at 3,400' AGL
Temperature
C / 46°F
Dewpoint
C / 46°F
Humidity
100%
Altimeter
29.19" Hg
Pressure
988.52 hPa
Current Rain
0.04"